sensor_id;sensor_type;location;lat;lon;timestamp;pressure;altitude;pressure_sealevel;temperature;humidity
28701;BME280;15877;52.344;16.790;2022-09-13T00:01:49;100474.07;;;15.76;71.57
28701;BME280;15877;52.344;16.790;2022-09-13T00:04:21;100473.91;;;15.76;71.53
28701;BME280;15877;52.344;16.790;2022-09-13T00:06:54;100468.55;;;15.74;71.48
28701;BME280;15877;52.344;16.790;2022-09-13T00:09:26;100473.75;;;15.74;72.09
28701;BME280;15877;52.344;16.790;2022-09-13T00:11:58;100464.15;;;15.74;72.44
28701;BME280;15877;52.344;16.790;2022-09-13T00:14:30;100465.90;;;15.76;71.89
28701;BME280;15877;52.344;16.790;2022-09-13T00:17:02;100465.34;;;15.78;71.52
28701;BME280;15877;52.344;16.790;2022-09-13T00:19:34;100464.62;;;15.78;71.39
28701;BME280;15877;52.344;16.790;2022-09-13T00:22:06;100458.39;;;15.78;71.17
28701;BME280;15877;52.344;16.790;2022-09-13T00:24:39;100457.83;;;15.78;71.39
28701;BME280;15877;52.344;16.790;2022-09-13T00:27:11;100450.70;;;15.79;71.03
28701;BME280;15877;52.344;16.790;2022-09-13T00:29:43;100451.33;;;15.79;70.75
28701;BME280;15877;52.344;16.790;2022-09-13T00:32:15;100453.42;;;15.76;70.91
28701;BME280;15877;52.344;16.790;2022-09-13T00:34:47;100455.34;;;15.74;71.00
28701;BME280;15877;52.344;16.790;2022-09-13T00:37:20;100449.10;;;15.75;70.70
28701;BME280;15877;52.344;16.790;2022-09-13T00:39:52;100445.97;;;15.75;70.88
28701;BME280;15877;52.344;16.790;2022-09-13T00:42:26;100441.73;;;15.73;70.96
28701;BME280;15877;52.344;16.790;2022-09-13T00:45:00;100441.73;;;15.71;70.72
28701;BME280;15877;52.344;16.790;2022-09-13T00:47:46;100445.48;;;15.72;70.76
28701;BME280;15877;52.344;16.790;2022-09-13T00:50:22;100439.00;;;15.69;70.54
28701;BME280;15877;52.344;16.790;2022-09-13T00:52:59;100443.56;;;15.68;70.78
28701;BME280;15877;52.344;16.790;2022-09-13T00:55:36;100437.97;;;15.67;70.71
28701;BME280;15877;52.344;16.790;2022-09-13T00:58:13;100435.48;;;15.65;70.55
28701;BME280;15877;52.344;16.790;2022-09-13T01:00:48;100438.83;;;15.65;70.95
28701;BME280;15877;52.344;16.790;2022-09-13T01:03:22;100436.99;;;15.63;70.97
28701;BME280;15877;52.344;16.790;2022-09-13T01:05:54;100437.31;;;15.61;71.37
28701;BME280;15877;52.344;16.790;2022-09-13T01:08:29;100431.06;;;15.60;71.24
28701;BME280;15877;52.344;16.790;2022-09-13T01:11:04;100428.59;;;15.59;71.60
28701;BME280;15877;52.344;16.790;2022-09-13T01:13:39;100428.90;;;15.59;70.72
28701;BME280;15877;52.344;16.790;2022-09-13T01:16:12;100431.46;;;15.58;70.82
28701;BME280;15877;52.344;16.790;2022-09-13T01:18:44;100434.10;;;15.57;71.15
28701;BME280;15877;52.344;16.790;2022-09-13T01:24:54;100426.98;;;15.55;70.71
28701;BME280;15877;52.344;16.790;2022-09-13T01:27:34;100423.05;;;15.53;71.15
28701;BME280;15877;52.344;16.790;2022-09-13T01:30:15;100410.15;;;15.45;71.02
28701;BME280;15877;52.344;16.790;2022-09-13T01:33:06;100421.30;;;15.55;70.29
28701;BME280;15877;52.344;16.790;2022-09-13T01:35:49;100417.61;;;15.54;70.42
28701;BME280;15877;52.344;16.790;2022-09-13T01:38:41;100418.25;;;15.50;70.60
28701;BME280;15877;52.344;16.790;2022-09-13T01:41:27;100412.41;;;15.47;71.45
28701;BME280;15877;52.344;16.790;2022-09-13T01:44:08;100412.64;;;15.48;71.40
28701;BME280;15877;52.344;16.790;2022-09-13T01:46:49;100404.73;;;15.48;71.47
28701;BME280;15877;52.344;16.790;2022-09-13T01:49:32;100400.89;;;15.47;70.96
28701;BME280;15877;52.344;16.790;2022-09-13T01:52:10;100396.25;;;15.47;70.29
28701;BME280;15877;52.344;16.790;2022-09-13T01:54:50;100392.41;;;15.47;70.71
28701;BME280;15877;52.344;16.790;2022-09-13T01:57:29;100387.84;;;15.45;70.81
28701;BME280;15877;52.344;16.790;2022-09-13T02:00:07;100386.24;;;15.44;70.88
28701;BME280;15877;52.344;16.790;2022-09-13T02:02:46;100382.89;;;15.45;70.78
28701;BME280;15877;52.344;16.790;2022-09-13T02:05:23;100381.04;;;15.45;70.68
28701;BME280;15877;52.344;16.790;2022-09-13T02:08:01;100374.17;;;15.45;70.59
28701;BME280;15877;52.344;16.790;2022-09-13T02:10:39;100371.92;;;15.44;70.75
28701;BME280;15877;52.344;16.790;2022-09-13T02:13:17;100369.20;;;15.42;70.48
28701;BME280;15877;52.344;16.790;2022-09-13T02:15:55;100362.23;;;15.38;70.65
28701;BME280;15877;52.344;16.790;2022-09-13T02:18:33;100364.05;;;15.37;70.83
28701;BME280;15877;52.344;16.790;2022-09-13T02:21:10;100363.95;;;15.36;70.01
28701;BME280;15877;52.344;16.790;2022-09-13T02:23:48;100336.36;;;15.21;70.06
28701;BME280;15877;52.344;16.790;2022-09-13T02:26:23;100348.04;;;15.33;70.15
28701;BME280;15877;52.344;16.790;2022-09-13T02:28:54;100341.17;;;15.30;70.81
28701;BME280;15877;52.344;16.790;2022-09-13T02:31:32;100339.80;;;15.30;71.41
28701;BME280;15877;52.344;16.790;2022-09-13T02:34:10;100334.92;;;15.30;70.64
28701;BME280;15877;52.344;16.790;2022-09-13T02:36:45;100333.73;;;15.30;70.13
28701;BME280;15877;52.344;16.790;2022-09-13T02:39:22;100336.13;;;15.30;69.94
28701;BME280;15877;52.344;16.790;2022-09-13T02:41:57;100331.63;;;15.27;70.22
28701;BME280;15877;52.344;16.790;2022-09-13T02:44:34;100326.94;;;15.28;70.59
28701;BME280;15877;52.344;16.790;2022-09-13T02:47:19;100329.49;;;15.29;70.59
28701;BME280;15877;52.344;16.790;2022-09-13T02:50:00;100318.13;;;15.27;70.49
28701;BME280;15877;52.344;16.790;2022-09-13T02:52:45;100309.58;;;15.26;70.84
28701;BME280;15877;52.344;16.790;2022-09-13T02:55:23;100303.96;;;15.24;71.18
28701;BME280;15877;52.344;16.790;2022-09-13T02:58:04;100303.58;;;15.26;71.07
28701;BME280;15877;52.344;16.790;2022-09-13T03:00:38;100300.21;;;15.26;70.37
28701;BME280;15877;52.344;16.790;2022-09-13T03:03:13;100297.10;;;15.25;70.79
28701;BME280;15877;52.344;16.790;2022-09-13T03:05:46;100291.26;;;15.26;70.99
28701;BME280;15877;52.344;16.790;2022-09-13T03:08:19;100279.27;;;15.17;70.74
28701;BME280;15877;52.344;16.790;2022-09-13T03:10:58;100296.45;;;15.25;70.03
28701;BME280;15877;52.344;16.790;2022-09-13T03:13:53;100290.77;;;15.23;69.97
28701;BME280;15877;52.344;16.790;2022-09-13T03:16:50;100285.83;;;15.21;70.32
28701;BME280;15877;52.344;16.790;2022-09-13T03:19:42;100283.49;;;15.19;70.35
28701;BME280;15877;52.344;16.790;2022-09-13T03:22:36;100281.73;;;15.16;70.28
28701;BME280;15877;52.344;16.790;2022-09-13T03:25:22;100268.05;;;15.07;70.20
28701;BME280;15877;52.344;16.790;2022-09-13T03:28:04;100277.42;;;15.15;69.95
28701;BME280;15877;52.344;16.790;2022-09-13T03:30:44;100277.34;;;15.13;69.93
28701;BME280;15877;52.344;16.790;2022-09-13T03:33:25;100244.77;;;14.93;69.55
28701;BME280;15877;52.344;16.790;2022-09-13T03:36:07;100272.38;;;15.10;69.67
28701;BME280;15877;52.344;16.790;2022-09-13T03:38:46;100269.65;;;15.08;69.78
28701;BME280;15877;52.344;16.790;2022-09-13T03:41:28;100268.70;;;15.06;69.81
28701;BME280;15877;52.344;16.790;2022-09-13T03:44:06;100263.02;;;15.04;69.75
28701;BME280;15877;52.344;16.790;2022-09-13T03:46:42;100256.23;;;15.03;70.06
28701;BME280;15877;52.344;16.790;2022-09-13T03:49:17;100254.38;;;15.02;69.70
28701;BME280;15877;52.344;16.790;2022-09-13T03:51:50;100257.42;;;15.01;69.62
28701;BME280;15877;52.344;16.790;2022-09-13T03:54:24;100253.49;;;15.00;69.69
28701;BME280;15877;52.344;16.790;2022-09-13T03:57:12;100245.74;;;14.99;69.98
28701;BME280;15877;52.344;16.790;2022-09-13T03:59:48;100245.90;;;14.98;69.89
28701;BME280;15877;52.344;16.790;2022-09-13T04:02:22;100250.78;;;14.96;70.10
28701;BME280;15877;52.344;16.790;2022-09-13T04:04:55;100255.16;;;14.94;68.92
28701;BME280;15877;52.344;16.790;2022-09-13T04:07:27;100257.64;;;14.92;68.93
28701;BME280;15877;52.344;16.790;2022-09-13T04:09:59;100263.88;;;14.92;68.81
28701;BME280;15877;52.344;16.790;2022-09-13T04:12:31;100268.60;;;14.91;68.97
28701;BME280;15877;52.344;16.790;2022-09-13T04:15:05;100269.45;;;14.88;68.79
28701;BME280;15877;52.344;16.790;2022-09-13T04:17:37;100266.73;;;14.85;68.93
28701;BME280;15877;52.344;16.790;2022-09-13T04:20:10;100267.63;;;14.85;69.21
28701;BME280;15877;52.344;16.790;2022-09-13T04:22:43;100263.08;;;14.84;69.26
28701;BME280;15877;52.344;16.790;2022-09-13T04:25:15;100258.98;;;14.82;69.73
28701;BME280;15877;52.344;16.790;2022-09-13T04:27:48;100256.17;;;14.81;69.86
28701;BME280;15877;52.344;16.790;2022-09-13T04:30:20;100258.02;;;14.80;69.83
28701;BME280;15877;52.344;16.790;2022-09-13T04:32:53;100258.58;;;14.79;69.82
28701;BME280;15877;52.344;16.790;2022-09-13T04:35:28;100257.87;;;14.79;70.11
28701;BME280;15877;52.344;16.790;2022-09-13T04:38:00;100257.95;;;14.81;69.92
28701;BME280;15877;52.344;16.790;2022-09-13T04:40:33;100259.30;;;14.81;69.93
28701;BME280;15877;52.344;16.790;2022-09-13T04:43:08;100248.13;;;14.79;70.25
28701;BME280;15877;52.344;16.790;2022-09-13T04:45:41;100241.89;;;14.79;70.47
28701;BME280;15877;52.344;16.790;2022-09-13T04:48:14;100240.92;;;14.80;70.71
28701;BME280;15877;52.344;16.790;2022-09-13T04:50:47;100243.48;;;14.82;71.08
28701;BME280;15877;52.344;16.790;2022-09-13T04:53:19;100245.73;;;14.83;71.07
28701;BME280;15877;52.344;16.790;2022-09-13T04:55:52;100242.30;;;14.85;71.12
28701;BME280;15877;52.344;16.790;2022-09-13T04:58:24;100238.45;;;14.87;71.26
28701;BME280;15877;52.344;16.790;2022-09-13T05:01:01;100233.34;;;14.89;71.14
28701;BME280;15877;52.344;16.790;2022-09-13T05:03:34;100220.39;;;14.82;70.85
28701;BME280;15877;52.344;16.790;2022-09-13T05:06:09;100228.80;;;14.91;70.64
28701;BME280;15877;52.344;16.790;2022-09-13T05:08:41;100226.70;;;14.91;70.78
28701;BME280;15877;52.344;16.790;2022-09-13T05:11:14;100226.31;;;14.91;70.70
28701;BME280;15877;52.344;16.790;2022-09-13T05:13:49;100221.44;;;14.91;70.86
28701;BME280;15877;52.344;16.790;2022-09-13T05:16:25;100228.79;;;14.91;70.80
28701;BME280;15877;52.344;16.790;2022-09-13T05:18:58;100228.23;;;14.93;70.88
28701;BME280;15877;52.344;16.790;2022-09-13T05:21:31;100223.59;;;14.92;71.14
28701;BME280;15877;52.344;16.790;2022-09-13T05:24:04;100220.32;;;14.94;71.05
28701;BME280;15877;52.344;16.790;2022-09-13T05:26:36;100213.85;;;14.94;71.44
28701;BME280;15877;52.344;16.790;2022-09-13T05:29:09;100211.69;;;14.95;71.85
28701;BME280;15877;52.344;16.790;2022-09-13T05:31:42;100206.59;;;14.96;72.37
28701;BME280;15877;52.344;16.790;2022-09-13T05:34:16;100200.75;;;14.97;72.70
28701;BME280;15877;52.344;16.790;2022-09-13T05:36:49;100198.83;;;15.01;73.26
28701;BME280;15877;52.344;16.790;2022-09-13T05:39:24;100200.34;;;15.04;73.01
28701;BME280;15877;52.344;16.790;2022-09-13T05:42:13;100192.67;;;15.09;73.37
28701;BME280;15877;52.344;16.790;2022-09-13T05:44:46;100190.04;;;15.12;73.32
28701;BME280;15877;52.344;16.790;2022-09-13T05:47:18;100191.88;;;15.14;73.47
28701;BME280;15877;52.344;16.790;2022-09-13T05:49:50;100188.84;;;15.17;73.81
28701;BME280;15877;52.344;16.790;2022-09-13T05:52:40;100187.39;;;15.17;75.23
28701;BME280;15877;52.344;16.790;2022-09-13T05:55:12;100180.59;;;15.21;76.17
28701;BME280;15877;52.344;16.790;2022-09-13T05:57:48;100173.56;;;15.19;77.89
28701;BME280;15877;52.344;16.790;2022-09-13T06:00:20;100170.20;;;15.28;78.32
28701;BME280;15877;52.344;16.790;2022-09-13T06:02:52;100167.39;;;15.31;78.81
28701;BME280;15877;52.344;16.790;2022-09-13T06:05:24;100168.44;;;15.39;79.02
28701;BME280;15877;52.344;16.790;2022-09-13T06:08:02;100164.11;;;15.49;78.90
28701;BME280;15877;52.344;16.790;2022-09-13T06:10:34;100169.45;;;15.59;79.60
28701;BME280;15877;52.344;16.790;2022-09-13T06:13:06;100169.90;;;15.67;80.09
28701;BME280;15877;52.344;16.790;2022-09-13T06:15:38;100174.13;;;15.72;80.86
28701;BME280;15877;52.344;16.790;2022-09-13T06:18:11;100172.97;;;15.80;81.96
28701;BME280;15877;52.344;16.790;2022-09-13T06:20:43;100165.52;;;15.86;82.25
28701;BME280;15877;52.344;16.790;2022-09-13T06:23:16;100152.23;;;15.85;82.59
28701;BME280;15877;52.344;16.790;2022-09-13T06:25:48;100160.75;;;15.99;82.32
28701;BME280;15877;52.344;16.790;2022-09-13T06:28:20;100159.95;;;16.14;81.83
28701;BME280;15877;52.344;16.790;2022-09-13T06:30:57;100163.27;;;16.25;82.38
28701;BME280;15877;52.344;16.790;2022-09-13T06:33:30;100163.36;;;16.38;81.23
28701;BME280;15877;52.344;16.790;2022-09-13T06:36:05;100159.52;;;16.51;80.85
28701;BME280;15877;52.344;16.790;2022-09-13T06:38:37;100155.25;;;16.57;81.40
28701;BME280;15877;52.344;16.790;2022-09-13T06:41:10;100159.68;;;16.65;81.62
28701;BME280;15877;52.344;16.790;2022-09-13T06:43:43;100161.95;;;16.73;81.97
28701;BME280;15877;52.344;16.790;2022-09-13T06:46:17;100152.77;;;16.78;80.98
28701;BME280;15877;52.344;16.790;2022-09-13T06:48:57;100149.55;;;16.88;79.61
28701;BME280;15877;52.344;16.790;2022-09-13T06:51:30;100148.00;;;16.93;78.94
28701;BME280;15877;52.344;16.790;2022-09-13T06:54:03;100143.27;;;16.95;78.88
28701;BME280;15877;52.344;16.790;2022-09-13T06:56:36;100136.58;;;16.97;79.00
28701;BME280;15877;52.344;16.790;2022-09-13T06:59:10;100133.34;;;16.93;79.35
28701;BME280;15877;52.344;16.790;2022-09-13T07:01:43;100134.91;;;16.94;79.45
28701;BME280;15877;52.344;16.790;2022-09-13T07:04:18;100133.73;;;17.01;78.85
28701;BME280;15877;52.344;16.790;2022-09-13T07:06:49;100131.95;;;17.05;78.61
28701;BME280;15877;52.344;16.790;2022-09-13T07:09:22;100133.64;;;17.05;78.79
28701;BME280;15877;52.344;16.790;2022-09-13T07:11:55;100134.13;;;17.12;77.80
28701;BME280;15877;52.344;16.790;2022-09-13T07:14:29;100133.41;;;17.11;77.83
28701;BME280;15877;52.344;16.790;2022-09-13T07:17:01;100131.14;;;17.14;77.59
28701;BME280;15877;52.344;16.790;2022-09-13T07:19:34;100131.95;;;17.22;77.77
28701;BME280;15877;52.344;16.790;2022-09-13T07:22:07;100130.34;;;17.30;77.87
28701;BME280;15877;52.344;16.790;2022-09-13T07:24:39;100126.36;;;17.35;78.07
28701;BME280;15877;52.344;16.790;2022-09-13T07:27:11;100121.84;;;17.30;77.99
28701;BME280;15877;52.344;16.790;2022-09-13T07:29:44;100127.89;;;17.35;77.99
28701;BME280;15877;52.344;16.790;2022-09-13T07:32:17;100121.44;;;17.38;78.04
28701;BME280;15877;52.344;16.790;2022-09-13T07:34:50;100125.89;;;17.40;77.48
28701;BME280;15877;52.344;16.790;2022-09-13T07:37:22;100120.69;;;17.32;78.52
28701;BME280;15877;52.344;16.790;2022-09-13T07:39:54;100119.66;;;17.39;78.73
28701;BME280;15877;52.344;16.790;2022-09-13T07:42:27;100121.45;;;17.53;78.40
28701;BME280;15877;52.344;16.790;2022-09-13T07:44:59;100116.02;;;17.66;78.47
28701;BME280;15877;52.344;16.790;2022-09-13T07:47:34;100113.02;;;17.73;76.92
28701;BME280;15877;52.344;16.790;2022-09-13T07:50:07;100111.84;;;17.79;77.85
28701;BME280;15877;52.344;16.790;2022-09-13T07:52:39;100114.84;;;17.90;76.66
28701;BME280;15877;52.344;16.790;2022-09-13T07:55:12;100111.50;;;18.05;76.50
28701;BME280;15877;52.344;16.790;2022-09-13T07:57:44;100112.03;;;18.07;76.74
28701;BME280;15877;52.344;16.790;2022-09-13T08:00:16;100112.34;;;18.14;77.01
28701;BME280;15877;52.344;16.790;2022-09-13T08:02:49;100101.95;;;18.15;76.45
28701;BME280;15877;52.344;16.790;2022-09-13T08:05:21;100102.13;;;18.26;75.56
28701;BME280;15877;52.344;16.790;2022-09-13T08:07:53;100098.91;;;18.38;74.88
28701;BME280;15877;52.344;16.790;2022-09-13T08:10:25;100101.86;;;18.46;74.31
28701;BME280;15877;52.344;16.790;2022-09-13T08:12:58;100102.89;;;18.46;73.93
28701;BME280;15877;52.344;16.790;2022-09-13T08:15:30;100106.36;;;18.51;74.64
28701;BME280;15877;52.344;16.790;2022-09-13T08:18:03;100104.98;;;18.56;74.36
28701;BME280;15877;52.344;16.790;2022-09-13T08:20:38;100102.09;;;18.52;73.88
28701;BME280;15877;52.344;16.790;2022-09-13T08:23:11;100109.47;;;18.64;73.70
28701;BME280;15877;52.344;16.790;2022-09-13T08:25:44;100108.19;;;18.67;72.93
28701;BME280;15877;52.344;16.790;2022-09-13T08:28:17;100099.03;;;18.76;72.13
28701;BME280;15877;52.344;16.790;2022-09-13T08:31:03;100098.48;;;18.76;73.27
28701;BME280;15877;52.344;16.790;2022-09-13T08:33:36;100094.05;;;18.87;72.24
28701;BME280;15877;52.344;16.790;2022-09-13T08:36:16;100090.98;;;18.86;72.06
28701;BME280;15877;52.344;16.790;2022-09-13T08:38:51;100093.58;;;18.90;71.39
28701;BME280;15877;52.344;16.790;2022-09-13T08:41:37;100092.95;;;18.89;71.34
28701;BME280;15877;52.344;16.790;2022-09-13T08:44:23;100082.44;;;19.02;70.81
28701;BME280;15877;52.344;16.790;2022-09-13T08:47:06;100077.58;;;19.12;70.79
28701;BME280;15877;52.344;16.790;2022-09-13T08:49:47;100079.35;;;19.07;71.33
28701;BME280;15877;52.344;16.790;2022-09-13T08:52:29;100077.48;;;19.03;71.34
28701;BME280;15877;52.344;16.790;2022-09-13T08:55:18;100074.36;;;19.08;71.29
28701;BME280;15877;52.344;16.790;2022-09-13T08:57:56;100066.49;;;19.06;71.44
28701;BME280;15877;52.344;16.790;2022-09-13T09:00:34;100061.94;;;18.97;70.86
28701;BME280;15877;52.344;16.790;2022-09-13T09:03:23;100055.80;;;19.02;71.66
28701;BME280;15877;52.344;16.790;2022-09-13T09:06:00;100051.07;;;18.97;72.02
28701;BME280;15877;52.344;16.790;2022-09-13T09:08:36;100046.37;;;18.99;71.47
28701;BME280;15877;52.344;16.790;2022-09-13T09:11:13;100037.31;;;19.05;70.98
28701;BME280;15877;52.344;16.790;2022-09-13T09:13:52;100021.36;;;18.89;71.38
28701;BME280;15877;52.344;16.790;2022-09-13T09:16:33;100030.98;;;19.00;71.81
28701;BME280;15877;52.344;16.790;2022-09-13T09:19:15;100038.84;;;19.14;71.52
28701;BME280;15877;52.344;16.790;2022-09-13T09:21:51;100040.59;;;19.19;71.38
28701;BME280;15877;52.344;16.790;2022-09-13T09:24:24;100045.78;;;19.30;71.31
28701;BME280;15877;52.344;16.790;2022-09-13T09:27:12;100040.86;;;19.31;71.32
28701;BME280;15877;52.344;16.790;2022-09-13T09:29:46;100025.48;;;19.32;71.02
28701;BME280;15877;52.344;16.790;2022-09-13T09:32:21;100036.54;;;19.30;70.59
28701;BME280;15877;52.344;16.790;2022-09-13T09:35:14;100032.40;;;19.32;70.70
28701;BME280;15877;52.344;16.790;2022-09-13T09:38:00;100030.34;;;19.30;71.19
28701;BME280;15877;52.344;16.790;2022-09-13T09:40:37;100027.61;;;19.38;71.34
28701;BME280;15877;52.344;16.790;2022-09-13T09:43:16;100026.45;;;19.32;71.45
28701;BME280;15877;52.344;16.790;2022-09-13T09:45:52;100025.08;;;19.23;71.26
28701;BME280;15877;52.344;16.790;2022-09-13T09:48:30;100026.77;;;19.27;71.34
28701;BME280;15877;52.344;16.790;2022-09-13T09:51:08;100031.56;;;19.34;71.98
28701;BME280;15877;52.344;16.790;2022-09-13T09:53:46;100038.98;;;19.37;72.49
28701;BME280;15877;52.344;16.790;2022-09-13T09:56:26;100033.04;;;19.32;71.26
28701;BME280;15877;52.344;16.790;2022-09-13T09:58:59;100032.39;;;19.32;71.04
28701;BME280;15877;52.344;16.790;2022-09-13T10:01:34;100022.70;;;19.21;70.81
28701;BME280;15877;52.344;16.790;2022-09-13T10:04:19;100020.69;;;19.25;71.19
28701;BME280;15877;52.344;16.790;2022-09-13T10:07:17;100024.41;;;19.33;71.28
28701;BME280;15877;52.344;16.790;2022-09-13T10:09:58;100021.31;;;19.51;71.26
28701;BME280;15877;52.344;16.790;2022-09-13T10:12:37;100022.67;;;19.56;71.18
28701;BME280;15877;52.344;16.790;2022-09-13T10:15:17;100003.99;;;19.63;71.03
28701;BME280;15877;52.344;16.790;2022-09-13T10:18:05;100016.79;;;19.75;71.77
28701;BME280;15877;52.344;16.790;2022-09-13T10:21:06;100010.59;;;19.75;70.17
28701;BME280;15877;52.344;16.790;2022-09-13T10:23:41;100022.55;;;19.87;69.23
28701;BME280;15877;52.344;16.790;2022-09-13T10:26:14;100020.54;;;19.94;69.14
28701;BME280;15877;52.344;16.790;2022-09-13T10:28:54;100016.68;;;20.11;69.94
28701;BME280;15877;52.344;16.790;2022-09-13T10:31:31;100019.98;;;20.26;68.78
28701;BME280;15877;52.344;16.790;2022-09-13T10:34:10;100019.95;;;20.30;68.01
28701;BME280;15877;52.344;16.790;2022-09-13T10:36:52;100013.42;;;20.31;67.76
28701;BME280;15877;52.344;16.790;2022-09-13T10:39:26;100002.51;;;20.22;67.18
28701;BME280;15877;52.344;16.790;2022-09-13T10:42:01;100014.86;;;20.37;66.88
28701;BME280;15877;52.344;16.790;2022-09-13T10:44:38;100010.37;;;20.43;66.53
28701;BME280;15877;52.344;16.790;2022-09-13T10:47:17;100003.35;;;20.40;66.69
28701;BME280;15877;52.344;16.790;2022-09-13T10:49:52;100007.08;;;20.33;66.58
28701;BME280;15877;52.344;16.790;2022-09-13T10:52:27;100001.65;;;20.37;66.58
28701;BME280;15877;52.344;16.790;2022-09-13T10:55:28;100001.93;;;20.45;66.71
28701;BME280;15877;52.344;16.790;2022-09-13T10:58:18;99990.20;;;20.53;66.84
28701;BME280;15877;52.344;16.790;2022-09-13T11:01:36;99985.19;;;20.47;66.96
28701;BME280;15877;52.344;16.790;2022-09-13T11:04:42;99984.63;;;20.25;67.48
28701;BME280;15877;52.344;16.790;2022-09-13T11:07:35;99980.73;;;20.19;67.69
28701;BME280;15877;52.344;16.790;2022-09-13T11:10:15;99970.98;;;20.22;68.13
28701;BME280;15877;52.344;16.790;2022-09-13T11:12:56;99973.03;;;20.18;68.41
28701;BME280;15877;52.344;16.790;2022-09-13T11:15:40;99973.73;;;20.25;68.30
28701;BME280;15877;52.344;16.790;2022-09-13T11:18:50;99966.77;;;20.33;67.62
28701;BME280;15877;52.344;16.790;2022-09-13T11:21:36;99957.20;;;20.32;68.27
28701;BME280;15877;52.344;16.790;2022-09-13T11:24:30;99946.98;;;20.31;68.03
28701;BME280;15877;52.344;16.790;2022-09-13T11:27:19;99939.55;;;20.25;67.82
28701;BME280;15877;52.344;16.790;2022-09-13T11:30:04;99933.54;;;20.34;67.84
28701;BME280;15877;52.344;16.790;2022-09-13T11:32:52;99937.80;;;20.34;67.88
28701;BME280;15877;52.344;16.790;2022-09-13T11:35:43;99934.15;;;20.28;68.59
28701;BME280;15877;52.344;16.790;2022-09-13T11:38:30;99940.99;;;20.32;68.54
28701;BME280;15877;52.344;16.790;2022-09-13T11:41:14;99946.30;;;20.09;67.83
28701;BME280;15877;52.344;16.790;2022-09-13T11:44:07;99940.80;;;20.17;68.39
28701;BME280;15877;52.344;16.790;2022-09-13T11:46:47;99938.95;;;20.20;68.49
28701;BME280;15877;52.344;16.790;2022-09-13T11:49:34;99938.17;;;20.19;68.42
28701;BME280;15877;52.344;16.790;2022-09-13T11:52:17;99939.18;;;20.21;68.20
28701;BME280;15877;52.344;16.790;2022-09-13T11:55:01;99939.36;;;20.30;68.19
28701;BME280;15877;52.344;16.790;2022-09-13T11:57:39;99936.00;;;20.29;68.75
28701;BME280;15877;52.344;16.790;2022-09-13T12:00:20;99919.48;;;20.23;68.40
28701;BME280;15877;52.344;16.790;2022-09-13T12:02:59;99931.55;;;20.30;68.49
28701;BME280;15877;52.344;16.790;2022-09-13T12:05:38;99930.27;;;20.29;68.17
28701;BME280;15877;52.344;16.790;2022-09-13T12:08:15;99923.96;;;20.30;67.95
28701;BME280;15877;52.344;16.790;2022-09-13T12:10:51;99917.49;;;20.18;68.62
28701;BME280;15877;52.344;16.790;2022-09-13T12:13:28;99909.10;;;20.25;69.18
28701;BME280;15877;52.344;16.790;2022-09-13T12:16:04;99903.72;;;20.28;69.20
28701;BME280;15877;52.344;16.790;2022-09-13T12:18:39;99901.30;;;20.27;69.92
28701;BME280;15877;52.344;16.790;2022-09-13T12:21:15;99892.34;;;20.31;68.60
28701;BME280;15877;52.344;16.790;2022-09-13T12:23:52;99884.42;;;20.13;69.59
28701;BME280;15877;52.344;16.790;2022-09-13T12:26:32;99898.02;;;20.32;68.94
28701;BME280;15877;52.344;16.790;2022-09-13T12:29:12;99890.11;;;20.33;68.64
28701;BME280;15877;52.344;16.790;2022-09-13T12:31:46;99891.64;;;20.33;67.82
28701;BME280;15877;52.344;16.790;2022-09-13T12:34:22;99887.71;;;20.35;68.58
28701;BME280;15877;52.344;16.790;2022-09-13T12:37:15;99887.34;;;20.34;69.07
28701;BME280;15877;52.344;16.790;2022-09-13T12:40:10;99889.85;;;20.27;68.93
28701;BME280;15877;52.344;16.790;2022-09-13T12:43:20;99890.27;;;20.17;69.54
28701;BME280;15877;52.344;16.790;2022-09-13T12:46:05;99880.80;;;20.15;70.30
28701;BME280;15877;52.344;16.790;2022-09-13T12:49:01;99876.58;;;20.20;70.42
28701;BME280;15877;52.344;16.790;2022-09-13T12:51:59;99867.67;;;20.28;70.46
28701;BME280;15877;52.344;16.790;2022-09-13T12:55:11;99867.58;;;20.32;69.75
28701;BME280;15877;52.344;16.790;2022-09-13T12:58:29;99855.92;;;20.21;68.83
28701;BME280;15877;52.344;16.790;2022-09-13T13:01:09;99862.36;;;20.31;68.87
28701;BME280;15877;52.344;16.790;2022-09-13T13:03:50;99856.81;;;20.48;68.68
28701;BME280;15877;52.344;16.790;2022-09-13T13:06:32;99854.58;;;20.59;68.58
28701;BME280;15877;52.344;16.790;2022-09-13T13:09:20;99848.61;;;20.67;68.32
28701;BME280;15877;52.344;16.790;2022-09-13T13:11:59;99845.66;;;20.78;67.41
28701;BME280;15877;52.344;16.790;2022-09-13T13:14:48;99835.11;;;20.83;67.14
28701;BME280;15877;52.344;16.790;2022-09-13T13:17:45;99834.23;;;20.93;67.06
28701;BME280;15877;52.344;16.790;2022-09-13T13:20:43;99832.21;;;21.13;66.52
28701;BME280;15877;52.344;16.790;2022-09-13T13:23:24;99828.23;;;21.32;66.81
28701;BME280;15877;52.344;16.790;2022-09-13T13:26:07;99830.72;;;21.35;65.93
28701;BME280;15877;52.344;16.790;2022-09-13T13:34:41;99828.10;;;21.36;65.70
28701;BME280;15877;52.344;16.790;2022-09-13T13:37:42;99822.38;;;21.38;65.85
28701;BME280;15877;52.344;16.790;2022-09-13T13:40:24;99825.80;;;21.29;66.26
28701;BME280;15877;52.344;16.790;2022-09-13T13:43:32;99826.80;;;21.15;66.21
28701;BME280;15877;52.344;16.790;2022-09-13T13:46:27;99818.70;;;21.06;66.90
28701;BME280;15877;52.344;16.790;2022-09-13T13:58:36;99808.94;;;21.26;66.24
28701;BME280;15877;52.344;16.790;2022-09-13T14:01:16;99808.98;;;21.23;66.62